States of Jersey

Home Log in

METAR EGJJ 270550Z 16008KT 9999 FEW040 09/07 Q1007

METAR EGJB 270550Z 14011KT 9999 SCT045 09/08 Q1006

METAR EGJA 270550Z 18010KT 9999 FEW015 BKN040 09/// Q1007

METAR LFRD 270600Z AUTO 15008KT CAVOK 07/06 Q1007 TEMPO SHRA BECMG 19020G30KT

METAR LFRC 270600Z AUTO 17006KT CAVOK 08/05 Q1008 NOSIG